This is the latest recevied weather packets stored in our database for station/object KB2SKP. If no packets are shown the sender has not sent any weather packets the latest 10 day(s).
| Time | Temp. | Humidity | Pressure | Rain* | Wind** | Luminosity | Snow |
|---|---|---|---|---|---|---|---|
| 1777580388 | 21.11° C | 39% | 1004.1 hPa | 0 mm | - | 65 W/m² | - |
| 1777580084 | 21.11° C | 36% | 1004.2 hPa | 0 mm | - | 71 W/m² | - |
| 1777579781 | 21.11° C | 39% | 1003.8 hPa | 0 mm | - | 70 W/m² | - |
| 1777579478 | 21.11° C | 38% | 1004 hPa | 0 mm | - | 57 W/m² | - |
| 1777579174 | 21.11° C | 38% | 1004 hPa | 0 mm | - | 64 W/m² | - |
| 1777578869 | 21.11° C | 38% | 1004.1 hPa | 0 mm | - | 61 W/m² | - |
| 1777578565 | 21.11° C | 39% | 1004.1 hPa | 0 mm | - | 59 W/m² | - |
| 1777578260 | 21.11° C | 40% | 1004 hPa | 0 mm | - | 48 W/m² | - |
| 1777577956 | 21.11° C | 43% | 1004 hPa | 0 mm | - | 57 W/m² | - |
| 1777577651 | 21.11° C | 41% | 1003.9 hPa | 0 mm | - | 79 W/m² | - |
| 1777577349 | 21.11° C | 42% | 1004 hPa | 0 mm | - | 64 W/m² | - |
| 1777577044 | 20.56° C | 42% | 1004.1 hPa | 0 mm | - | 146 W/m² | - |
| 1777576742 | 20.56° C | 40% | 1003.9 hPa | 0 mm | - | 112 W/m² | - |
| 1777576440 | 21.11° C | 42% | 1004 hPa | 0 mm | - | 43 W/m² | - |
| 1777576138 | 21.11° C | 42% | 1004.1 hPa | 0 mm | - | 85 W/m² | - |
| 1777575832 | 21.11° C | 43% | 1004.1 hPa | 0 mm | - | 40 W/m² | - |
| 1777575530 | 21.11° C | 42% | 1004 hPa | 0 mm | - | 57 W/m² | - |
| 1777575225 | 20.56° C | 42% | 1004.2 hPa | 0 mm | - | 84 W/m² | - |
| 1777574921 | 20° C | 44% | 1004 hPa | 0 mm | - | 61 W/m² | - |
| 1777574618 | 20° C | 43% | 1004.3 hPa | 0 mm | - | 78 W/m² | - |
| 1777574315 | 20° C | 43% | 1004.4 hPa | 0 mm | - | 108 W/m² | - |
| 1777574010 | 20.56° C | 44% | 1004.2 hPa | 0 mm | - | 114 W/m² | - |
| 1777573710 | 20.56° C | 44% | 1004.3 hPa | 0 mm | - | 59 W/m² | - |
| 1777573407 | 19.44° C | 42% | 1004.5 hPa | 0 mm | - | 369 W/m² | - |
| 1777573103 | 20° C | 42% | 1004.1 hPa | 0 mm | - | 237 W/m² | - |
* Rain latest hour (hover to see other rain measurements)
** Current wind speed in m/s (hover to see current wind gust speed)